createdAt,value
2023-10-25T00:02:12.447Z,100781.63
2023-10-25T00:04:41.871Z,100779.17
2023-10-25T00:07:12.024Z,100773.92
2023-10-25T00:09:41.707Z,100768.91
2023-10-25T00:12:11.562Z,100764.67
2023-10-25T00:14:42.538Z,100758.23
2023-10-25T00:17:12.223Z,100750.94
2023-10-25T00:19:41.978Z,100743.02
2023-10-25T00:22:11.644Z,100731.14
2023-10-25T00:24:41.160Z,100726.88
2023-10-25T00:27:11.768Z,100726.54
2023-10-25T00:29:41.498Z,100726.77
2023-10-25T00:32:16.124Z,100721.09
2023-10-25T00:34:45.681Z,100722.45
2023-10-25T00:37:15.127Z,100725.19
2023-10-25T00:39:44.848Z,100722.90
2023-10-25T00:42:14.726Z,100725.99
2023-10-25T00:44:44.065Z,100731.70
2023-10-25T00:47:13.863Z,100736.40
2023-10-25T00:49:44.803Z,100727.71
2023-10-25T00:52:14.509Z,100720.53
2023-10-25T00:54:44.592Z,100716.42
2023-10-25T00:57:15.358Z,100711.98
2023-10-25T00:59:47.535Z,100711.30
2023-10-25T01:02:17.120Z,100707.29
2023-10-25T01:04:46.769Z,100704.96
2023-10-25T01:07:16.266Z,100702.72
2023-10-25T01:09:46.784Z,100702.17
2023-10-25T01:12:17.945Z,100702.14
2023-10-25T01:14:51.357Z,100701.65
2023-10-25T01:17:20.867Z,100697.10
2023-10-25T01:19:50.915Z,100693.30
2023-10-25T01:22:26.175Z,100684.05
2023-10-25T01:24:55.729Z,100688.95
2023-10-25T01:27:25.106Z,100689.59
2023-10-25T01:29:54.572Z,100700.09
2023-10-25T01:32:24.197Z,100704.23
2023-10-25T01:34:53.619Z,100713.05
2023-10-25T01:37:23.065Z,100709.14
2023-10-25T01:39:52.376Z,100700.20
2023-10-25T01:42:22.009Z,100698.33
2023-10-25T01:44:51.504Z,100697.45
2023-10-25T01:47:21.000Z,100700.98
2023-10-25T01:49:51.024Z,100701.02
2023-10-25T01:52:21.989Z,100695.77
2023-10-25T01:54:54.577Z,100692.77
2023-10-25T01:57:24.115Z,100688.05
2023-10-25T01:59:53.625Z,100680.30
2023-10-25T02:02:23.029Z,100673.63
2023-10-25T02:04:53.296Z,100674.31
2023-10-25T02:07:22.763Z,100677.10
2023-10-25T02:09:52.227Z,100674.07
2023-10-25T02:12:21.748Z,100678.29
2023-10-25T02:14:51.253Z,100678.25
2023-10-25T02:17:22.541Z,100676.86
2023-10-25T02:19:52.090Z,100675.98
2023-10-25T02:22:21.805Z,100676.64
2023-10-25T02:24:51.749Z,100674.16
2023-10-25T02:27:21.323Z,100671.05
2023-10-25T02:29:50.712Z,100669.08
2023-10-25T02:32:21.032Z,100665.34
2023-10-25T02:34:50.747Z,100662.15
2023-10-25T02:37:21.111Z,100660.52
2023-10-25T02:39:50.594Z,100659.14
2023-10-25T02:42:20.468Z,100657.01
2023-10-25T02:44:50.007Z,100652.37
2023-10-25T02:47:20.940Z,100655.88
2023-10-25T02:49:50.267Z,100654.98
2023-10-25T02:52:19.997Z,100649.77
2023-10-25T02:54:50.845Z,100649.06
2023-10-25T02:57:21.271Z,100647.81
2023-10-25T02:59:52.897Z,100640.66
2023-10-25T03:02:22.928Z,100635.05
2023-10-25T03:04:52.460Z,100635.11
2023-10-25T03:07:22.941Z,100628.98
2023-10-25T03:09:53.025Z,100631.27
2023-10-25T03:12:22.560Z,100623.58
2023-10-25T03:14:52.047Z,100610.73
2023-10-25T03:17:21.816Z,100607.88
2023-10-25T03:19:51.561Z,100593.32
2023-10-25T03:22:21.265Z,100586.06
2023-10-25T03:24:50.930Z,100585.88
2023-10-25T03:27:21.749Z,100590.42
2023-10-25T03:29:51.290Z,100596.62
2023-10-25T03:32:21.009Z,100603.54
2023-10-25T03:34:54.132Z,100598.90
2023-10-25T03:37:23.692Z,100600.83
2023-10-25T03:39:53.167Z,100588.90
2023-10-25T03:42:22.700Z,100570.05
2023-10-25T03:44:52.028Z,100566.33
2023-10-25T03:47:21.387Z,100573.93
2023-10-25T03:49:54.110Z,100567.64
2023-10-25T03:52:23.744Z,100562.94
2023-10-25T03:54:54.398Z,100558.50
2023-10-25T03:57:24.655Z,100556.69
2023-10-25T03:59:54.257Z,100551.39
2023-10-25T04:02:23.762Z,100549.80
2023-10-25T04:04:53.279Z,100549.04
2023-10-25T04:07:22.835Z,100545.38
2023-10-25T04:09:52.554Z,100546.11
2023-10-25T04:12:22.163Z,100542.70
2023-10-25T04:14:51.596Z,100526.20
2023-10-25T04:17:21.007Z,100511.02
2023-10-25T04:19:50.376Z,100512.08
2023-10-25T04:22:20.662Z,100515.57
2023-10-25T04:24:50.264Z,100515.24
2023-10-25T04:27:21.185Z,100526.17
2023-10-25T04:29:50.991Z,100532.84
2023-10-25T04:32:21.164Z,100533.42
2023-10-25T04:34:51.535Z,100534.86
2023-10-25T04:37:21.568Z,100536.54
2023-10-25T04:39:51.300Z,100538.61
2023-10-25T04:42:20.902Z,100538.85
2023-10-25T04:44:50.295Z,100542.23
2023-10-25T04:47:19.650Z,100536.60
2023-10-25T04:49:49.080Z,100532.23
2023-10-25T04:52:20.553Z,100532.31
2023-10-25T04:54:52.521Z,100533.14
2023-10-25T04:57:23.820Z,100521.54
2023-10-25T04:59:55.714Z,100516.78
2023-10-25T05:02:27.184Z,100513.33
2023-10-25T05:04:57.379Z,100502.89
2023-10-25T05:07:27.297Z,100501.11
2023-10-25T05:09:57.547Z,100501.63
2023-10-25T05:12:40.446Z,100500.06
2023-10-25T05:15:11.873Z,100507.50
2023-10-25T05:17:43.334Z,100514.05
2023-10-25T05:20:15.131Z,100518.10
2023-10-25T05:22:52.462Z,100524.90
2023-10-25T05:25:23.155Z,100528.73
2023-10-25T05:27:55.946Z,100544.41
2023-10-25T05:30:26.512Z,100547.56
2023-10-25T05:33:01.732Z,100541.56
2023-10-25T05:35:31.711Z,100537.65
2023-10-25T05:38:03.818Z,100526.44
2023-10-25T05:40:34.003Z,100512.52
2023-10-25T05:43:08.261Z,100513.34
2023-10-25T05:45:40.153Z,100530.58
2023-10-25T05:48:12.880Z,100535.09
2023-10-25T05:50:50.400Z,100534.79
2023-10-25T05:53:22.901Z,100532.80
2023-10-25T05:55:54.814Z,100531.31
2023-10-25T05:58:25.063Z,100538.38
2023-10-25T06:00:57.292Z,100535.17
2023-10-25T06:03:32.473Z,100522.67
2023-10-25T06:06:03.424Z,100515.55
2023-10-25T06:08:33.384Z,100513.94
2023-10-25T06:11:04.295Z,100504.75
2023-10-25T06:13:39.780Z,100507.55
2023-10-25T06:16:09.375Z,100499.16
2023-10-25T06:18:38.929Z,100494.91
2023-10-25T06:21:08.368Z,100503.33
2023-10-25T06:23:37.947Z,100503.20
2023-10-25T06:26:07.433Z,100499.95
2023-10-25T06:28:37.476Z,100499.30
2023-10-25T06:31:06.898Z,100496.46
2023-10-25T06:33:36.679Z,100481.37
2023-10-25T06:36:08.581Z,100468.27
2023-10-25T06:38:38.698Z,100458.05
2023-10-25T06:41:33.218Z,100464.92
2023-10-25T06:44:05.656Z,100460.27
2023-10-25T06:46:36.156Z,100461.90
2023-10-25T06:49:06.270Z,100463.52
2023-10-25T06:51:36.569Z,100461.41
2023-10-25T06:54:06.789Z,100458.14
2023-10-25T06:56:37.304Z,100458.87
2023-10-25T06:59:11.392Z,100460.02
2023-10-25T07:01:46.041Z,100454.94
2023-10-25T07:04:16.593Z,100457.40
2023-10-25T07:06:47.885Z,100455.42
2023-10-25T07:09:17.849Z,100450.42
2023-10-25T07:11:47.594Z,100446.84
2023-10-25T07:14:17.059Z,100445.61
2023-10-25T07:16:46.767Z,100443.65
2023-10-25T07:19:16.463Z,100441.73
2023-10-25T07:21:45.962Z,100440.25
2023-10-25T07:24:15.542Z,100438.81
2023-10-25T07:26:47.441Z,100457.70
2023-10-25T07:29:17.159Z,100467.55
2023-10-25T07:31:46.532Z,100474.27
2023-10-25T07:34:17.674Z,100477.51
2023-10-25T07:36:47.269Z,100481.98
2023-10-25T07:39:17.084Z,100484.37
2023-10-25T07:41:46.711Z,100469.68
2023-10-25T07:44:16.130Z,100462.00
2023-10-25T07:46:45.674Z,100450.55
2023-10-25T07:49:15.441Z,100442.48
2023-10-25T07:51:45.100Z,100437.35
2023-10-25T07:54:14.672Z,100445.61
2023-10-25T07:59:19.245Z,100457.87
2023-10-25T08:01:50.148Z,100454.72
2023-10-25T08:04:22.857Z,100455.87
2023-10-25T08:06:52.708Z,100455.52
2023-10-25T08:09:24.143Z,100462.39
2023-10-25T08:11:56.848Z,100462.92
2023-10-25T08:14:26.445Z,100469.09
2023-10-25T08:16:56.680Z,100465.20
2023-10-25T08:19:26.831Z,100463.71
2023-10-25T08:21:57.382Z,100456.84
2023-10-25T08:24:27.112Z,100454.20
2023-10-25T08:26:57.094Z,100453.80
2023-10-25T08:29:27.026Z,100453.66
2023-10-25T08:31:56.887Z,100441.67
2023-10-25T08:34:27.911Z,100439.56
2023-10-25T08:36:58.014Z,100441.17
2023-10-25T08:39:27.382Z,100449.17
2023-10-25T08:41:57.621Z,100449.14
2023-10-25T08:44:27.111Z,100443.80
2023-10-25T08:46:56.646Z,100443.23
2023-10-25T08:49:26.224Z,100445.03
2023-10-25T08:51:56.227Z,100439.80
2023-10-25T08:54:27.214Z,100440.77
2023-10-25T08:56:57.364Z,100439.94
2023-10-25T08:59:27.521Z,100442.30
2023-10-25T09:01:58.219Z,100438.11
2023-10-25T09:04:28.300Z,100442.31
2023-10-25T09:06:58.189Z,100439.99
2023-10-25T09:09:40.639Z,100443.61
2023-10-25T09:12:24.631Z,100444.77
2023-10-25T09:18:25.037Z,100437.76
2023-10-25T09:21:10.304Z,100431.52
2023-10-25T09:24:03.888Z,100430.90
2023-10-25T09:26:39.883Z,100431.08
2023-10-25T09:29:37.221Z,100428.23
2023-10-25T09:32:27.408Z,100416.73
2023-10-25T09:36:38.803Z,100419.06
2023-10-25T09:39:08.535Z,100416.80
2023-10-25T09:41:41.931Z,100414.55
2023-10-25T09:44:27.689Z,100417.30
2023-10-25T09:47:01.172Z,100417.41
2023-10-25T09:49:34.800Z,100422.30
2023-10-25T09:52:31.374Z,100418.52
2023-10-25T09:55:29.520Z,100407.61
2023-10-25T09:58:04.736Z,100398.88
2023-10-25T10:00:35.738Z,100400.06
2023-10-25T10:03:22.416Z,100388.55
2023-10-25T10:06:35.494Z,100382.05
2023-10-25T10:09:57.218Z,100379.52
2023-10-25T10:12:27.028Z,100375.13
2023-10-25T10:14:57.956Z,100374.10
2023-10-25T10:17:30.635Z,100366.31
2023-10-25T10:20:05.387Z,100364.69
2023-10-25T10:22:36.708Z,100370.25
2023-10-25T10:25:06.997Z,100368.25
2023-10-25T10:27:42.361Z,100368.21
2023-10-25T10:30:40.160Z,100366.23
2023-10-25T10:33:14.795Z,100359.46
2023-10-25T10:35:48.823Z,100354.98
2023-10-25T10:38:18.656Z,100348.15
2023-10-25T10:40:54.433Z,100342.64
2023-10-25T10:43:23.835Z,100337.63
2023-10-25T10:45:55.115Z,100343.05
2023-10-25T10:48:36.029Z,100344.17
2023-10-25T10:51:08.033Z,100343.44
2023-10-25T10:53:38.418Z,100342.33
2023-10-25T10:56:17.431Z,100346.75
2023-10-25T10:58:47.150Z,100339.27
2023-10-25T11:01:17.699Z,100340.75
2023-10-25T11:03:55.861Z,100343.80
2023-10-25T11:06:28.392Z,100342.97
2023-10-25T11:09:01.445Z,100348.56
2023-10-25T11:11:31.475Z,100352.15
2023-10-25T11:14:01.065Z,100352.98
2023-10-25T11:16:31.297Z,100362.23
2023-10-25T11:19:08.845Z,100366.54
2023-10-25T11:21:40.774Z,100366.36
2023-10-25T11:24:11.798Z,100366.96
2023-10-25T11:26:43.348Z,100358.68
2023-10-25T11:29:13.365Z,100358.61
2023-10-25T11:31:58.258Z,100351.85
2023-10-25T11:34:37.353Z,100346.83
2023-10-25T11:37:10.480Z,100345.67
2023-10-25T11:40:12.815Z,100336.52
2023-10-25T11:42:47.540Z,100332.96
2023-10-25T11:45:23.803Z,100335.71
2023-10-25T11:48:02.115Z,100338.70
2023-10-25T11:50:37.038Z,100337.87
2023-10-25T11:53:10.927Z,100342.44
2023-10-25T11:55:41.506Z,100338.18
2023-10-25T11:58:20.266Z,100337.05
2023-10-25T12:01:10.146Z,100333.58
2023-10-25T12:03:42.933Z,100334.70
2023-10-25T12:06:13.332Z,100332.73
2023-10-25T12:08:43.467Z,100329.46
2023-10-25T12:11:16.623Z,100333.27
2023-10-25T12:13:50.343Z,100332.93
2023-10-25T12:16:25.957Z,100338.41
2023-10-25T12:18:55.279Z,100332.64
2023-10-25T12:21:28.313Z,100330.25
2023-10-25T12:24:01.305Z,100328.34
2023-10-25T12:26:32.253Z,100327.23
2023-10-25T12:29:10.563Z,100325.77
2023-10-25T12:31:39.929Z,100321.21
2023-10-25T12:34:09.536Z,100320.17
2023-10-25T12:36:39.703Z,100316.67
2023-10-25T12:39:12.512Z,100316.20
2023-10-25T12:41:42.209Z,100318.45
2023-10-25T12:44:14.703Z,100316.03
2023-10-25T12:46:45.278Z,100319.49
2023-10-25T12:49:18.348Z,100320.70
2023-10-25T12:51:51.273Z,100322.73
2023-10-25T12:54:22.619Z,100324.73
2023-10-25T12:56:52.660Z,100326.08
2023-10-25T12:59:24.886Z,100324.71
2023-10-25T13:01:54.443Z,100329.66
2023-10-25T13:04:24.164Z,100330.61
2023-10-25T13:06:55.126Z,100330.16
2023-10-25T13:09:24.668Z,100334.67
2023-10-25T13:11:54.869Z,100342.84
2023-10-25T13:14:27.274Z,100341.54
2023-10-25T13:17:08.491Z,100341.89
2023-10-25T13:19:46.475Z,100329.63
2023-10-25T13:22:16.164Z,100321.54
2023-10-25T13:24:45.788Z,100321.55
2023-10-25T13:27:16.219Z,100323.29
2023-10-25T13:29:45.771Z,100315.06
2023-10-25T13:32:15.684Z,100312.92
2023-10-25T13:34:45.776Z,100308.11
2023-10-25T13:37:15.473Z,100299.23
2023-10-25T13:39:45.103Z,100302.38
2023-10-25T13:42:14.883Z,100303.02
2023-10-25T13:44:45.555Z,100297.46
2023-10-25T13:47:14.813Z,100300.02
2023-10-25T13:49:44.458Z,100301.27
2023-10-25T13:52:16.004Z,100302.77
2023-10-25T13:54:46.376Z,100304.56
2023-10-25T13:57:16.116Z,100304.85
2023-10-25T13:59:49.245Z,100301.58
2023-10-25T14:02:18.759Z,100306.96
2023-10-25T14:04:53.142Z,100304.89
2023-10-25T14:07:36.394Z,100301.77
2023-10-25T14:10:08.274Z,100305.46
2023-10-25T14:12:40.919Z,100304.38
2023-10-25T14:15:16.258Z,100307.23
2023-10-25T14:17:46.244Z,100304.96
2023-10-25T14:20:17.548Z,100302.52
2023-10-25T14:22:47.179Z,100300.35
2023-10-25T14:26:42.819Z,100293.61
2023-10-25T14:29:46.916Z,100292.05
2023-10-25T14:32:57.047Z,100292.76
2023-10-25T14:35:38.470Z,100291.79
2023-10-25T14:38:13.773Z,100295.61
2023-10-25T14:40:43.427Z,100293.30
2023-10-25T14:44:22.889Z,100288.73
2023-10-25T14:47:00.883Z,100285.21
2023-10-25T14:49:37.311Z,100280.02
2023-10-25T14:52:11.503Z,100278.05
2023-10-25T14:54:41.632Z,100276.39
2023-10-25T14:57:30.546Z,100279.59
2023-10-25T15:00:27.352Z,100278.80
2023-10-25T15:02:58.317Z,100280.91
2023-10-25T15:05:28.239Z,100284.55
2023-10-25T15:07:59.425Z,100283.74
2023-10-25T15:10:36.096Z,100278.10
2023-10-25T15:23:36.331Z,100269.06
2023-10-25T15:26:25.510Z,100268.65
2023-10-25T15:32:22.128Z,100271.98
2023-10-25T15:34:51.986Z,100273.88
2023-10-25T15:37:30.135Z,100272.98
2023-10-25T15:42:37.778Z,100272.35
2023-10-25T15:45:12.683Z,100273.88
2023-10-25T15:47:42.919Z,100266.02
2023-10-25T15:50:12.717Z,100266.49
2023-10-25T15:52:48.722Z,100266.58
2023-10-25T15:55:24.335Z,100265.73
2023-10-25T15:57:54.044Z,100269.55
2023-10-25T16:00:23.946Z,100275.92
2023-10-25T16:02:53.561Z,100280.70
2023-10-25T16:05:23.103Z,100282.61
2023-10-25T16:07:53.402Z,100279.31
2023-10-25T16:10:26.140Z,100281.74
2023-10-25T16:12:55.645Z,100278.54
2023-10-25T16:15:25.267Z,100286.45
2023-10-25T16:17:56.469Z,100291.34
2023-10-25T16:20:26.019Z,100288.80
2023-10-25T16:22:55.765Z,100293.67
2023-10-25T16:25:25.477Z,100295.78
2023-10-25T16:27:55.064Z,100298.76
2023-10-25T16:30:25.508Z,100297.97
2023-10-25T16:32:59.361Z,100300.49
2023-10-25T16:35:28.826Z,100303.09
2023-10-25T16:37:58.517Z,100303.97
2023-10-25T16:40:31.161Z,100310.70
2023-10-25T16:43:05.890Z,100310.19
2023-10-25T16:45:37.347Z,100312.41
2023-10-25T16:48:14.781Z,100314.41
2023-10-25T16:50:45.389Z,100308.14
2023-10-25T16:53:17.104Z,100319.34
2023-10-25T16:55:48.169Z,100326.35
2023-10-25T16:58:19.444Z,100335.38
2023-10-25T17:01:15.887Z,100335.92
2023-10-25T17:03:57.897Z,100334.73
2023-10-25T17:06:33.806Z,100333.22
2023-10-25T17:09:04.151Z,100344.06
2023-10-25T17:11:43.746Z,100339.05
2023-10-25T17:14:56.188Z,100335.30
2023-10-25T17:17:32.935Z,100336.30
2023-10-25T17:20:06.417Z,100340.77
2023-10-25T17:22:36.706Z,100339.23
2023-10-25T17:25:06.937Z,100336.59
2023-10-25T17:27:36.501Z,100336.58
2023-10-25T17:30:25.558Z,100335.17
2023-10-25T17:33:31.867Z,100333.73
2023-10-25T17:36:02.458Z,100334.77
2023-10-25T17:38:37.601Z,100328.92
2023-10-25T17:41:09.909Z,100328.51
2023-10-25T17:43:44.483Z,100332.85
2023-10-25T17:46:15.809Z,100337.53
2023-10-25T17:48:45.279Z,100345.50
2023-10-25T17:51:16.171Z,100353.89
2023-10-25T17:53:49.101Z,100358.05
2023-10-25T17:56:25.284Z,100356.83
2023-10-25T17:58:54.850Z,100360.07
2023-10-25T18:01:24.991Z,100364.09
2023-10-25T18:03:56.577Z,100367.19
2023-10-25T18:06:34.171Z,100369.90
2023-10-25T18:09:08.462Z,100371.33
2023-10-25T18:11:46.953Z,100366.30
2023-10-25T18:14:17.081Z,100368.43
2023-10-25T18:16:49.898Z,100365.09
2023-10-25T18:19:22.292Z,100371.92
2023-10-25T18:21:53.811Z,100366.66
2023-10-25T18:24:25.340Z,100365.52
2023-10-25T18:26:55.416Z,100364.38
2023-10-25T18:29:28.287Z,100360.68
2023-10-25T18:32:26.804Z,100366.08
2023-10-25T18:34:47.563Z,100373.31
2023-10-25T18:37:17.519Z,100373.38
2023-10-25T18:39:47.104Z,100381.80
2023-10-25T18:42:16.650Z,100383.20
2023-10-25T18:44:47.305Z,100384.46
2023-10-25T18:47:22.739Z,100392.86
2023-10-25T18:49:53.943Z,100396.52
2023-10-25T18:52:24.693Z,100395.75
2023-10-25T18:54:56.823Z,100397.65
2023-10-25T18:57:26.569Z,100400.86
2023-10-25T19:00:01.382Z,100409.48
2023-10-25T19:02:31.267Z,100407.11
2023-10-25T19:06:24.691Z,100403.70
2023-10-25T19:08:26.061Z,100407.87
2023-10-25T19:10:53.935Z,100407.51
2023-10-25T19:13:23.394Z,100409.73
2023-10-25T19:15:52.930Z,100402.96
2023-10-25T19:18:22.359Z,100403.26
2023-10-25T19:20:52.534Z,100402.09
2023-10-25T19:23:22.068Z,100401.25
2023-10-25T19:25:52.959Z,100399.48
2023-10-25T19:28:23.302Z,100398.46
2023-10-25T19:30:53.482Z,100395.91
2023-10-25T19:33:22.923Z,100390.19
2023-10-25T19:35:55.472Z,100390.39
2023-10-25T19:38:30.204Z,100389.91
2023-10-25T19:40:59.556Z,100395.94
2023-10-25T19:43:29.605Z,100396.21
2023-10-25T19:45:59.836Z,100396.75
2023-10-25T19:48:29.483Z,100392.75
2023-10-25T19:51:01.282Z,100390.59
2023-10-25T19:53:31.936Z,100390.12
2023-10-25T19:56:03.539Z,100391.94
2023-10-25T19:58:33.117Z,100398.45
2023-10-25T20:01:02.491Z,100401.94
2023-10-25T20:03:33.024Z,100402.66
2023-10-25T20:06:07.594Z,100407.20
2023-10-25T20:08:37.078Z,100402.70
2023-10-25T20:11:08.206Z,100398.61
2023-10-25T20:13:37.581Z,100403.23
2023-10-25T20:16:07.610Z,100399.21
2023-10-25T20:18:37.245Z,100403.16
2023-10-25T20:21:08.756Z,100398.64
2023-10-25T20:23:38.188Z,100402.41
2023-10-25T20:26:25.852Z,100402.64
2023-10-25T20:29:24.212Z,100409.92
2023-10-25T20:31:53.769Z,100408.68
2023-10-25T20:34:35.870Z,100404.61
2023-10-25T20:37:05.902Z,100388.71
2023-10-25T20:39:35.217Z,100390.19
2023-10-25T20:42:05.246Z,100393.52
2023-10-25T20:44:34.874Z,100395.98
2023-10-25T20:47:05.169Z,100387.77
2023-10-25T20:49:34.654Z,100387.15
2023-10-25T20:52:04.347Z,100390.45
2023-10-25T20:54:33.660Z,100391.45
2023-10-25T20:57:03.330Z,100390.43
2023-10-25T20:59:32.988Z,100385.20
2023-10-25T21:02:03.548Z,100383.75
2023-10-25T21:04:33.079Z,100382.39
2023-10-25T21:07:02.660Z,100375.27
2023-10-25T21:09:32.087Z,100379.08
2023-10-25T21:12:02.446Z,100374.06
2023-10-25T21:14:31.924Z,100372.55
2023-10-25T21:17:01.546Z,100377.82
2023-10-25T21:19:31.114Z,100375.52
2023-10-25T21:22:00.677Z,100373.77
2023-10-25T21:24:30.224Z,100372.55
2023-10-25T21:26:59.682Z,100375.73
2023-10-25T21:29:29.160Z,100374.00
2023-10-25T21:31:58.616Z,100374.05
2023-10-25T21:34:31.557Z,100373.23
2023-10-25T21:37:01.530Z,100376.19
2023-10-25T21:39:30.938Z,100380.80
2023-10-25T21:42:00.447Z,100382.67
2023-10-25T21:44:29.999Z,100385.48
2023-10-25T21:47:01.656Z,100389.11
2023-10-25T21:49:31.493Z,100395.95
2023-10-25T21:52:00.990Z,100405.16
2023-10-25T21:54:30.764Z,100408.77
2023-10-25T21:57:00.529Z,100412.36
2023-10-25T21:59:52.197Z,100417.77
2023-10-25T22:02:22.249Z,100422.22
2023-10-25T22:04:56.876Z,100428.81
2023-10-25T22:07:26.242Z,100436.38
2023-10-25T22:09:58.166Z,100433.89
2023-10-25T22:12:28.194Z,100436.45
2023-10-25T22:14:57.861Z,100441.49
2023-10-25T22:17:29.287Z,100443.04
2023-10-25T22:19:58.722Z,100449.39
2023-10-25T22:22:28.361Z,100448.13
2023-10-25T22:24:57.912Z,100450.58
2023-10-25T22:27:30.312Z,100452.86
2023-10-25T22:30:01.884Z,100457.61
2023-10-25T22:32:31.414Z,100456.10
2023-10-25T22:35:01.136Z,100458.95
2023-10-25T22:37:30.678Z,100457.79
2023-10-25T22:40:04.830Z,100456.98
2023-10-25T22:42:34.280Z,100460.14
2023-10-25T22:45:04.048Z,100466.69
2023-10-25T22:47:33.613Z,100477.50
2023-10-25T22:50:03.797Z,100477.29
2023-10-25T22:52:33.322Z,100474.66
2023-10-25T22:55:02.724Z,100479.48
2023-10-25T22:57:32.175Z,100479.27
2023-10-25T23:00:01.507Z,100477.13
2023-10-25T23:02:31.020Z,100471.48
2023-10-25T23:05:00.551Z,100464.57
2023-10-25T23:07:29.971Z,100463.33
2023-10-25T23:09:59.327Z,100452.02
2023-10-25T23:12:28.760Z,100446.58
2023-10-25T23:14:58.328Z,100448.11
2023-10-25T23:17:27.794Z,100457.91
2023-10-25T23:19:57.157Z,100455.66
2023-10-25T23:22:26.552Z,100456.06
2023-10-25T23:24:56.049Z,100447.67
2023-10-25T23:27:25.439Z,100446.40
2023-10-25T23:29:55.805Z,100435.49
2023-10-25T23:32:25.578Z,100433.73
2023-10-25T23:34:55.411Z,100433.62
2023-10-25T23:37:25.090Z,100450.70
2023-10-25T23:39:54.695Z,100463.91
2023-10-25T23:42:24.630Z,100465.91
2023-10-25T23:44:54.385Z,100452.45
2023-10-25T23:47:23.941Z,100438.73
2023-10-25T23:49:53.565Z,100433.95
2023-10-25T23:52:23.104Z,100429.41
2023-10-25T23:54:55.904Z,100419.71
2023-10-25T23:57:37.698Z,100407.61
